Time;durP1;ratioP1;P1;durP2;ratioP2;P2;SDS_P1;SDS_P2;PMS_P1;PMS_P2;Temp;Humidity;BMP_temperature;BMP_pressure;BME280_temperature;BME280_humidity;BME280_pressure;Samples;Min_cycle;Max_cycle;Signal;HPM_P1;HPM_P2
2022/06/22 00:02:15;;;;;;;6.92;3.37;;;;;;;10.09;70.91;99921.83;2028992;86;21018;-83
2022/06/22 00:05:22;;;;;;;6.62;2.62;;;;;;;10.06;70.99;99925.63;2028917;86;21022;-83
2022/06/22 00:08:34;;;;;;;8.95;3.47;;;;;;;10.01;71.23;99932.44;2027532;87;21070;-83
2022/06/22 00:11:42;;;;;;;11.25;4.30;;;;;;;9.94;70.98;99931.44;2030360;86;21047;-83
2022/06/22 00:14:48;;;;;;;13.32;3.83;;;;;;;9.91;71.27;99935.75;2026900;86;21006;-84
2022/06/22 00:17:50;;;;;;;11.28;4.40;;;;;;;9.91;71.29;99935.75;2026968;86;21081;-83
2022/06/22 00:21:02;;;;;;;8.33;4.05;;;;;;;9.85;71.34;99941.22;2027580;86;21643;-84
2022/06/22 00:24:25;;;;;;;10.05;3.92;;;;;;;9.82;71.41;99946.34;2026889;87;21059;-83
2022/06/22 00:27:33;;;;;;;11.75;3.87;;;;;;;9.76;71.27;99948.34;2030463;86;21039;-83
2022/06/22 00:30:39;;;;;;;8.43;4.05;;;;;;;9.71;71.29;99960.42;2026667;86;21037;-83
2022/06/22 00:34:07;;;;;;;13.68;4.47;;;;;;;9.64;71.24;99962.42;2026354;86;21015;-84
2022/06/22 00:37:28;;;;;;;13.90;3.33;;;;;;;9.61;71.25;99971.20;1970527;89;21052;-84
2022/06/22 00:40:30;;;;;;;10.85;3.87;;;;;;;9.62;71.42;99963.57;1977585;89;21036;-83
2022/06/22 00:43:36;;;;;;;6.35;3.12;;;;;;;9.60;71.59;99973.49;2027546;86;21030;-83
2022/06/22 00:46:48;;;;;;;6.47;3.30;;;;;;;9.58;71.45;99968.38;2024492;86;21545;-84
2022/06/22 00:49:47;;;;;;;10.83;3.53;;;;;;;9.53;71.71;99965.38;2028141;87;21614;-84
2022/06/22 00:52:54;;;;;;;4.90;3.17;;;;;;;9.53;71.93;99973.33;2030192;86;21033;-83
2022/06/22 00:56:20;;;;;;;11.95;3.20;;;;;;;9.50;72.03;99973.66;2028966;86;21580;-84
2022/06/22 00:59:48;;;;;;;9.25;3.08;;;;;;;9.48;71.91;99966.86;2029605;86;21038;-84
2022/06/22 01:02:56;;;;;;;10.50;3.85;;;;;;;9.42;71.84;99965.20;2003954;87;21613;-84
2022/06/22 01:06:09;;;;;;;10.63;3.08;;;;;;;9.36;71.85;99969.83;1999550;88;21033;-84
2022/06/22 01:09:34;;;;;;;7.58;2.87;;;;;;;9.31;71.89;99965.50;1995679;88;21073;-83
2022/06/22 01:12:52;;;;;;;5.95;3.42;;;;;;;9.24;71.82;99957.07;1998262;88;21617;-83
2022/06/22 01:16:00;;;;;;;6.83;3.22;;;;;;;9.20;72.42;99955.22;1995925;88;21081;-84
2022/06/22 01:19:22;;;;;;;5.62;3.52;;;;;;;9.12;72.83;99947.25;1997515;88;21085;-83
2022/06/22 01:23:03;;;;;;;6.20;3.12;;;;;;;9.05;73.16;99944.94;1998420;88;21161;-84
2022/06/22 01:26:31;;;;;;;5.55;2.65;;;;;;;9.01;72.88;99942.26;1999122;88;21076;-83
2022/06/22 01:29:33;;;;;;;4.35;2.85;;;;;;;8.97;72.59;99943.91;1997108;88;21057;-84
2022/06/22 01:32:36;;;;;;;8.38;4.28;;;;;;;8.94;72.87;99943.41;1995155;88;21497;-84
2022/06/22 01:35:39;;;;;;;6.28;3.30;;;;;;;8.88;73.34;99938.77;1998991;86;21129;-83
2022/06/22 01:38:40;;;;;;;6.17;3.50;;;;;;;8.84;73.56;99940.05;1998156;88;20970;-84
2022/06/22 01:41:56;;;;;;;6.65;2.98;;;;;;;8.78;73.81;99944.16;1999210;88;21010;-83
2022/06/22 01:45:18;;;;;;;2.85;2.50;;;;;;;8.77;73.76;99937.23;1996644;88;21008;-84
2022/06/22 01:48:36;;;;;;;10.40;3.02;;;;;;;8.76;73.51;99938.22;1997772;88;21031;-83
2022/06/22 01:51:49;;;;;;;9.33;3.08;;;;;;;8.80;73.53;99948.81;1996330;88;21050;-83
2022/06/22 01:54:58;;;;;;;8.68;3.20;;;;;;;8.79;73.33;99952.45;1995554;88;21065;-84
2022/06/22 01:58:14;;;;;;;6.30;3.00;;;;;;;8.75;73.36;99954.56;1995547;88;21058;-84
2022/06/22 02:01:30;;;;;;;5.30;2.75;;;;;;;8.76;73.64;99962.03;1994735;87;21093;-84
2022/06/22 02:05:00;;;;;;;7.33;3.75;;;;;;;8.75;73.58;99965.64;1993051;88;21583;-82
2022/06/22 02:08:08;;;;;;;4.95;3.40;;;;;;;8.77;73.73;99967.65;1990843;88;21050;-84
2022/06/22 02:11:20;;;;;;;16.73;3.52;;;;;;;8.73;73.69;99961.86;1993094;88;21494;-83
2022/06/22 02:14:27;;;;;;;4.55;3.12;;;;;;;8.68;73.40;99950.09;1988306;88;21033;-84
2022/06/22 02:17:33;;;;;;;5.03;3.42;;;;;;;8.53;73.46;99955.97;1991169;87;20998;-83
2022/06/22 02:20:37;;;;;;;5.90;3.33;;;;;;;8.41;73.95;99958.53;1992712;88;21073;-83
2022/06/22 02:23:40;;;;;;;3.45;3.12;;;;;;;8.35;74.22;99956.48;1991421;88;21082;-83
2022/06/22 02:26:50;;;;;;;4.28;2.72;;;;;;;8.32;74.42;99947.55;1996182;87;21075;-83
2022/06/22 02:29:58;;;;;;;3.70;3.05;;;;;;;8.22;74.35;99941.06;1994143;88;21030;-83
2022/06/22 02:33:02;;;;;;;6.80;3.02;;;;;;;8.18;74.77;99933.59;1989617;88;21390;-84
2022/06/22 02:36:04;;;;;;;8.27;2.87;;;;;;;8.18;74.72;99941.52;1993385;88;21637;-83
2022/06/22 02:39:10;;;;;;;5.03;2.67;;;;;;;8.18;74.64;99938.38;1990207;88;21076;-83
2022/06/22 02:45:34;;;;;;;7.72;2.85;;;;;;;8.18;74.33;99943.66;1977464;88;21083;-83
2022/06/22 02:48:37;;;;;;;4.53;2.60;;;;;;;8.15;74.50;99937.87;1991017;88;21077;-82
2022/06/22 02:51:45;;;;;;;6.45;3.15;;;;;;;8.19;74.47;99940.52;1992376;88;21044;-83
2022/06/22 02:54:55;;;;;;;5.65;2.80;;;;;;;8.19;74.50;99939.20;1992283;88;21007;-84
2022/06/22 02:58:02;;;;;;;6.92;3.20;;;;;;;8.24;74.38;99936.92;1963601;88;21146;-83
2022/06/22 03:01:17;;;;;;;5.80;3.12;;;;;;;8.21;74.35;99933.27;1993765;86;21050;-85
2022/06/22 03:04:18;;;;;;;5.50;2.90;;;;;;;8.21;74.41;99934.59;2028692;86;21053;-83
2022/06/22 03:07:22;;;;;;;3.75;2.77;;;;;;;8.26;74.69;99933.64;2027104;86;21109;-84
2022/06/22 03:10:34;;;;;;;5.22;2.98;;;;;;;8.34;74.97;99942.95;2027478;86;21085;-84
2022/06/22 03:13:52;;;;;;;5.97;2.67;;;;;;;8.47;74.89;99939.39;2031473;86;21361;-83
2022/06/22 03:17:06;;;;;;;4.17;2.90;;;;;;;8.58;74.71;99934.83;2030302;86;21055;-84
2022/06/22 03:20:18;;;;;;;4.45;2.42;;;;;;;8.65;74.83;99937.19;2024061;86;21125;-83
2022/06/22 03:23:47;;;;;;;6.30;2.72;;;;;;;8.75;74.81;99941.84;2028592;86;21070;-83
2022/06/22 03:26:53;;;;;;;6.05;2.98;;;;;;;8.79;74.80;99943.20;2030815;86;21062;-83
2022/06/22 03:30:02;;;;;;;4.60;2.70;;;;;;;8.95;75.08;99947.70;2028786;87;21095;-83
2022/06/22 03:33:14;;;;;;;6.10;2.98;;;;;;;9.27;75.23;99946.98;2028228;86;21542;-83
2022/06/22 03:36:20;;;;;;;11.93;3.62;;;;;;;9.62;74.67;99936.58;2048144;85;21026;-83
2022/06/22 03:39:25;;;;;;;4.87;2.98;;;;;;;9.84;74.62;99938.24;2039450;86;21022;-84
2022/06/22 03:42:47;;;;;;;9.43;4.08;;;;;;;10.14;73.98;99946.52;2042781;86;21070;-84
2022/06/22 03:45:57;;;;;;;5.87;3.08;;;;;;;10.05;74.13;99941.70;2051088;85;20980;-83
2022/06/22 03:49:34;;;;;;;6.47;3.42;;;;;;;10.02;74.25;99944.69;2045698;85;21561;-83
2022/06/22 03:52:43;;;;;;;4.28;3.08;;;;;;;11.39;74.49;99958.16;2047086;86;21077;-83
2022/06/22 03:55:51;;;;;;;5.78;2.72;;;;;;;11.39;74.49;99958.16;2038106;86;21085;-83
2022/06/22 03:58:54;;;;;;;5.58;2.80;;;;;;;11.97;73.60;99965.25;2036283;86;20985;-85
2022/06/22 04:02:00;;;;;;;7.97;3.55;;;;;;;12.54;73.16;99968.16;2022310;85;21680;-86
2022/06/22 04:05:04;;;;;;;7.75;3.20;;;;;;;13.24;73.07;99961.98;1976217;88;21137;-85
2022/06/22 04:08:20;;;;;;;7.90;3.37;;;;;;;13.87;72.29;99968.38;1944665;88;21086;-85
2022/06/22 04:11:43;;;;;;;4.67;2.90;;;;;;;14.35;70.80;99963.72;1979994;88;21083;-85
2022/06/22 04:15:01;;;;;;;;;;;;;;;;;;;;;
2022/06/22 04:18:15;;;;;;;7.62;3.02;;;;;;;14.95;69.26;99973.43;1966767;88;21449;-86
2022/06/22 04:21:27;;;;;;;7.28;3.08;;;;;;;15.19;69.10;99965.42;1979480;88;21085;-86
2022/06/22 04:24:33;;;;;;;5.40;3.40;;;;;;;15.69;68.86;99958.78;1977144;88;21114;-84
2022/06/22 04:27:41;;;;;;;6.60;3.33;;;;;;;16.12;68.37;99964.25;1960765;88;21075;-84
2022/06/22 04:30:55;;;;;;;5.15;3.05;;;;;;;16.49;67.45;99955.25;1975905;88;21133;-85
2022/06/22 04:34:04;;;;;;;;;;;;;;;16.59;66.73;99954.31;1975519;88;21046;-85
2022/06/22 04:37:20;;;;;;;3.52;3.08;;;;;;;16.50;65.75;99955.05;1983647;88;20166;-85
2022/06/22 04:40:37;;;;;;;7.42;3.20;;;;;;;16.50;65.81;99948.36;1979595;88;21020;-84
2022/06/22 04:43:34;;;;;;;4.62;3.30;;;;;;;16.75;65.80;99955.69;1965980;88;21035;-83
2022/06/22 04:46:43;;;;;;;7.40;3.98;;;;;;;17.29;65.29;99963.02;1979296;89;21123;-85
2022/06/22 04:49:54;;;;;;;5.67;3.35;;;;;;;17.69;64.68;99967.64;1982226;87;21079;-88
2022/06/22 04:53:02;;;;;;;6.30;3.60;;;;;;;18.03;63.84;99963.70;1989487;88;21082;-86
2022/06/22 04:56:15;;;;;;;7.35;3.20;;;;;;;18.48;64.00;99965.36;1979113;88;21035;-85
2022/06/22 04:59:19;;;;;;;4.85;3.15;;;;;;;19.09;62.81;99961.81;2042650;86;21038;-87
2022/06/22 05:02:26;;;;;;;5.58;3.15;;;;;;;19.45;61.81;99964.10;2060276;83;21053;-84
2022/06/22 05:05:33;;;;;;;4.65;3.17;;;;;;;19.80;61.37;99960.21;2103533;82;21521;-89
2022/06/22 05:08:55;;;;;;;4.65;3.58;;;;;;;20.23;61.10;99965.00;2073700;83;21557;-87
2022/06/22 05:11:55;;;;;;;4.72;3.22;;;;;;;20.65;60.06;99959.51;2085425;84;21018;-86
2022/06/22 05:15:05;;;;;;;6.55;3.22;;;;;;;21.07;59.17;99965.50;2099085;83;21036;-83
2022/06/22 05:18:18;;;;;;;7.28;3.05;;;;;;;21.41;58.74;99968.34;2099889;83;21100;-84
2022/06/22 05:21:33;;;;;;;5.47;3.10;;;;;;;22.00;57.63;99973.41;2099351;83;20981;-84
2022/06/22 05:24:38;;;;;;;5.62;3.10;;;;;;;22.15;56.76;99979.05;2101730;83;21006;-84
2022/06/22 05:27:59;;;;;;;4.12;2.85;;;;;;;22.37;56.30;99981.84;2079794;84;21011;-84
2022/06/22 05:31:14;;;;;;;4.87;3.08;;;;;;;22.57;55.49;99985.37;2052395;83;20993;-85
2022/06/22 05:34:23;;;;;;;6.72;2.95;;;;;;;22.94;55.49;99983.43;2097243;84;21075;-85
2022/06/22 05:37:32;;;;;;;5.20;2.72;;;;;;;23.55;55.12;99992.28;2100500;84;20977;-85
2022/06/22 05:40:36;;;;;;;5.08;2.75;;;;;;;23.91;54.41;99992.66;2099881;84;20990;-85
2022/06/22 05:43:40;;;;;;;8.23;2.92;;;;;;;24.06;53.01;99995.48;2076097;83;21540;-85
2022/06/22 05:46:49;;;;;;;6.47;3.20;;;;;;;24.02;52.46;100001.66;2101350;83;21026;-86
2022/06/22 05:50:09;;;;;;;4.28;2.77;;;;;;;24.28;52.38;100001.34;2101293;84;20981;-85
2022/06/22 05:53:31;;;;;;;8.65;3.30;;;;;;;24.57;51.78;99995.86;2098647;83;20997;-81
2022/06/22 05:56:41;;;;;;;19.30;4.15;;;;;;;24.94;50.98;100003.10;2099508;83;21092;-83
2022/06/22 05:59:48;;;;;;;11.80;3.67;;;;;;;25.30;49.97;99993.77;2101089;83;21009;-83
2022/06/22 06:03:29;;;;;;;4.37;2.40;;;;;;;25.49;49.58;99990.84;2096656;84;21101;-84
2022/06/22 06:06:39;;;;;;;4.40;2.50;;;;;;;25.75;48.33;99985.44;2101264;83;21002;-83
2022/06/22 06:09:39;;;;;;;4.12;2.20;;;;;;;25.89;48.06;99983.03;2099860;83;21006;-84
2022/06/22 06:12:46;;;;;;;4.58;2.05;;;;;;;26.09;46.38;99984.94;2098435;83;21659;-83
2022/06/22 06:15:51;;;;;;;4.03;2.00;;;;;;;26.01;46.09;99982.77;2096449;83;21015;-83
2022/06/22 06:19:00;;;;;;;4.35;2.00;;;;;;;26.09;45.61;99974.06;2099178;83;21017;-84
2022/06/22 06:22:06;;;;;;;3.35;1.90;;;;;;;25.87;45.04;99975.14;2101424;84;20992;-83
2022/06/22 06:28:54;;;;;;;3.00;2.02;;;;;;;26.20;44.80;99983.03;2102596;84;21011;-84
2022/06/22 06:32:10;;;;;;;4.67;2.08;;;;;;;26.52;43.91;99982.72;2099001;83;21030;-84
2022/06/22 06:35:33;;;;;;;3.52;2.05;;;;;;;26.36;43.67;99988.17;2100425;84;22279;-84
2022/06/22 06:38:42;;;;;;;3.30;1.77;;;;;;;26.36;42.89;99990.09;2100463;83;20991;-84
2022/06/22 06:42:04;;;;;;;2.42;2.00;;;;;;;26.49;43.33;99984.60;2098729;83;21019;-82
2022/06/22 06:45:14;;;;;;;3.87;1.77;;;;;;;26.80;42.85;99979.37;2096520;83;21029;-82
2022/06/22 06:48:22;;;;;;;4.53;1.72;;;;;;;26.99;42.52;99980.13;2096715;83;21066;-84
2022/06/22 06:51:29;;;;;;;6.70;2.42;;;;;;;27.07;41.98;99980.09;2097402;83;21025;-84
2022/06/22 06:54:45;;;;;;;3.92;1.80;;;;;;;27.27;40.77;99978.11;2102873;84;21022;-84
2022/06/22 06:58:17;;;;;;;4.08;1.90;;;;;;;27.27;40.77;99978.11;2098719;83;21010;-83
2022/06/22 07:01:29;;;;;;;2.30;1.42;;;;;;;27.30;39.93;99978.64;2099943;83;21102;-83
2022/06/22 07:04:34;;;;;;;3.30;1.52;;;;;;;27.30;39.76;99974.01;2096375;83;21559;-83
2022/06/22 07:07:55;;;;;;;4.58;1.22;;;;;;;27.42;39.17;99975.02;2091500;83;21068;-84
2022/06/22 07:11:06;;;;;;;2.08;1.00;;;;;;;27.59;37.80;99974.64;2089268;83;21027;-82
2022/06/22 07:14:18;;;;;;;1.25;1.15;;;;;;;27.77;37.91;99979.98;2097191;83;21492;-83
2022/06/22 07:17:22;;;;;;;1.62;1.02;;;;;;;28.01;37.29;99974.06;2094492;83;21014;-83
2022/06/22 07:20:28;;;;;;;3.27;1.50;;;;;;;28.07;37.04;99974.30;2095538;83;21448;-83
2022/06/22 07:23:35;;;;;;;1.85;1.40;;;;;;;28.11;36.61;99976.71;2095995;83;21036;-83
2022/06/22 07:26:44;;;;;;;3.05;1.32;;;;;;;28.41;36.30;99980.26;2091722;84;21066;-85
2022/06/22 07:30:08;;;;;;;3.90;1.30;;;;;;;28.22;36.19;99974.71;2093836;83;20982;-83
2022/06/22 07:33:27;;;;;;;3.70;1.40;;;;;;;28.31;36.31;99972.16;2092043;83;21485;-84
2022/06/22 07:36:35;;;;;;;3.00;1.30;;;;;;;28.59;35.21;99980.90;2091158;83;21053;-83
2022/06/22 07:39:52;;;;;;;2.90;1.32;;;;;;;28.96;35.33;99973.91;2096257;83;21078;-82
2022/06/22 07:42:56;;;;;;;4.62;1.25;;;;;;;29.24;35.13;99980.95;2097375;83;21074;-84
2022/06/22 07:45:57;;;;;;;1.67;0.82;;;;;;;29.30;34.69;99981.14;2089873;84;21013;-83
2022/06/22 07:49:04;;;;;;;1.30;0.90;;;;;;;29.09;32.99;99986.61;2095711;84;21480;-85
2022/06/22 07:52:10;;;;;;;1.57;1.00;;;;;;;28.74;32.89;99981.27;2092817;83;20990;-82
2022/06/22 07:55:31;;;;;;;1.60;1.20;;;;;;;28.23;32.19;99982.34;2089518;83;21040;-84
2022/06/22 07:58:36;;;;;;;3.05;1.15;;;;;;;28.11;32.08;99981.36;2100367;83;21028;-84
2022/06/22 08:01:42;;;;;;;3.62;1.55;;;;;;;28.23;31.93;99978.25;2097057;84;20998;-84
2022/06/22 08:05:05;;;;;;;6.10;1.52;;;;;;;28.18;32.02;99983.73;2100560;83;21085;-82
2022/06/22 08:08:12;;;;;;;5.05;1.40;;;;;;;28.10;32.01;99975.09;2100459;84;20986;-85
2022/06/22 08:11:48;;;;;;;2.47;1.20;;;;;;;27.63;32.18;99976.52;2097608;83;21036;-84
2022/06/22 08:14:49;;;;;;;1.90;1.30;;;;;;;27.31;32.31;99974.81;2098445;83;21670;-83
2022/06/22 08:17:54;;;;;;;2.52;1.20;;;;;;;27.15;32.96;99972.71;2099101;83;20989;-83
2022/06/22 08:21:02;;;;;;;0.65;0.65;;;;;;;27.08;32.99;99968.91;2075821;83;21010;-83
2022/06/22 08:24:03;;;;;;;1.92;1.00;;;;;;;26.87;32.81;99972.84;2099074;83;21052;-84
2022/06/22 08:27:06;;;;;;;2.92;1.20;;;;;;;26.56;33.39;99972.94;2100312;83;21005;-83
2022/06/22 08:30:11;;;;;;;2.75;1.40;;;;;;;26.37;33.29;99969.39;2094762;83;20979;-83
2022/06/22 08:33:17;;;;;;;3.30;1.20;;;;;;;26.19;34.33;99965.09;2098115;84;21104;-83
2022/06/22 08:36:24;;;;;;;4.12;1.30;;;;;;;26.22;34.67;99964.55;2101161;83;21091;-84
2022/06/22 08:39:53;;;;;;;4.22;1.27;;;;;;;26.62;34.06;99958.22;2101582;83;20998;-84
2022/06/22 08:43:05;;;;;;;2.12;1.02;;;;;;;27.37;33.75;99953.25;2095794;84;21092;-83
2022/06/22 08:46:37;;;;;;;2.70;1.30;;;;;;;27.74;33.14;99959.55;2099271;83;21580;-83
2022/06/22 08:50:02;;;;;;;1.77;1.07;;;;;;;27.85;32.01;99958.95;2096524;83;21520;-83
2022/06/22 08:53:53;;;;;;;2.70;1.20;;;;;;;27.86;31.17;99970.12;2098804;83;20966;-82
2022/06/22 08:57:05;;;;;;;3.52;1.25;;;;;;;27.77;31.08;99966.35;2099699;83;21575;-84
2022/06/22 09:00:29;;;;;;;2.77;1.22;;;;;;;27.47;31.01;99958.09;2100527;83;21041;-82
2022/06/22 09:04:04;;;;;;;3.27;1.20;;;;;;;27.46;31.03;99953.75;2080613;83;21035;-83
2022/06/22 09:07:16;;;;;;;1.98;1.00;;;;;;;27.65;30.01;99955.27;2091803;83;21030;-84
2022/06/22 09:11:03;;;;;;;3.65;1.20;;;;;;;27.46;31.00;99951.58;2097447;83;21080;-83
2022/06/22 09:14:21;;;;;;;1.60;1.30;;;;;;;27.14;29.74;99952.00;2091238;83;21021;-84
2022/06/22 09:17:58;;;;;;;2.87;1.30;;;;;;;27.08;30.41;99947.13;2094933;83;21071;-82
2022/06/22 09:21:26;;;;;;;2.27;0.95;;;;;;;27.46;31.56;99945.58;2096823;83;21026;-85
2022/06/22 09:24:51;;;;;;;2.33;0.90;;;;;;;28.07;31.24;99941.58;2094617;84;21074;-81
2022/06/22 09:28:13;;;;;;;3.72;1.40;;;;;;;28.38;30.19;99933.90;2091417;83;21097;-84
2022/06/22 09:31:47;;;;;;;1.30;1.00;;;;;;;28.67;29.78;99922.69;2092340;83;21057;-82
2022/06/22 09:35:19;;;;;;;2.08;1.00;;;;;;;28.64;29.71;99920.55;2092188;84;20992;-85
2022/06/22 09:38:49;;;;;;;1.72;0.90;;;;;;;28.58;28.80;99916.51;2096695;83;21017;-84
2022/06/22 09:42:32;;;;;;;2.17;1.47;;;;;;;28.64;29.60;99931.47;2092490;84;21035;-82
2022/06/22 09:45:59;;;;;;;1.05;0.85;;;;;;;28.82;30.13;99932.84;2098318;83;21359;-82
2022/06/22 09:49:24;;;;;;;6.87;1.32;;;;;;;28.71;29.99;99931.35;2093529;83;20963;-83
2022/06/22 09:52:48;;;;;;;5.72;1.92;;;;;;;28.71;29.44;99927.81;2091904;83;21529;-84
2022/06/22 09:56:20;;;;;;;2.52;1.10;;;;;;;28.87;29.99;99934.71;2094829;83;21007;-85
2022/06/22 09:59:42;;;;;;;3.42;1.17;;;;;;;28.94;29.97;99941.97;2097432;83;21033;-85
2022/06/22 10:03:22;;;;;;;4.53;1.40;;;;;;;28.99;29.77;99932.36;2087950;83;21521;-84
2022/06/22 10:06:56;;;;;;;2.02;0.98;;;;;;;29.14;29.41;99930.55;2091326;83;21039;-83
2022/06/22 10:10:21;;;;;;;1.70;0.98;;;;;;;29.35;29.45;99933.81;2088451;83;20986;-84
2022/06/22 10:13:36;;;;;;;2.27;1.20;;;;;;;29.32;29.03;99944.78;2094128;83;21045;-83
2022/06/22 10:17:18;;;;;;;1.90;1.32;;;;;;;29.34;28.25;99937.10;2094133;83;21719;-84
2022/06/22 10:20:39;;;;;;;2.10;1.10;;;;;;;29.20;28.63;99930.73;2100195;84;21048;-83
2022/06/22 10:24:35;;;;;;;2.27;1.02;;;;;;;28.72;28.63;99927.53;2093638;83;21469;-84
2022/06/22 10:28:13;;;;;;;2.47;1.00;;;;;;;28.72;28.63;99927.53;2092314;83;21529;-85
2022/06/22 10:31:45;;;;;;;2.35;1.25;;;;;;;28.70;29.43;99922.11;2093637;83;20994;-84
2022/06/22 10:35:11;;;;;;;2.37;1.30;;;;;;;28.83;29.68;99929.56;2096005;83;21049;-83
2022/06/22 10:38:20;;;;;;;1.65;1.00;;;;;;;28.99;29.31;99926.89;2097504;83;22633;-82
2022/06/22 10:45:10;;;;;;;2.83;1.00;;;;;;;28.89;28.66;99930.30;2093625;83;21101;-84
2022/06/22 10:48:55;;;;;;;2.08;0.98;;;;;;;29.05;28.44;99923.57;2092483;83;21065;-83
2022/06/22 10:52:18;;;;;;;4.12;1.10;;;;;;;29.05;28.44;99923.57;2090255;83;21044;-85
2022/06/22 10:55:43;;;;;;;2.62;1.27;;;;;;;28.81;28.76;99901.76;2091505;83;21356;-83
2022/06/22 10:59:30;;;;;;;2.58;1.27;;;;;;;28.89;28.54;99920.75;2094625;84;21058;-84
2022/06/22 11:03:10;;;;;;;2.25;1.30;;;;;;;28.81;28.66;99909.95;2089774;83;21057;-84
2022/06/22 11:06:28;;;;;;;3.70;1.12;;;;;;;29.06;28.90;99910.19;2086212;84;21101;-83
2022/06/22 11:10:06;;;;;;;1.50;0.90;;;;;;;29.33;29.04;99908.14;2079546;83;21037;-87
2022/06/22 11:13:35;;;;;;;2.50;0.90;;;;;;;29.27;29.10;99906.03;2082351;83;21058;-84
2022/06/22 11:17:11;;;;;;;2.40;1.10;;;;;;;28.93;29.05;99904.05;2084151;83;21553;-84
2022/06/22 11:20:52;;;;;;;3.37;1.12;;;;;;;29.02;28.48;99906.38;2081686;84;21021;-84
2022/06/22 11:24:20;;;;;;;1.87;1.10;;;;;;;28.41;28.47;99894.31;2079234;84;20977;-82
2022/06/22 11:31:35;;;;;;;4.67;1.20;;;;;;;27.62;29.25;99878.16;1977346;88;21054;-85
2022/06/22 11:34:51;;;;;;;7.50;1.52;;;;;;;27.33;29.73;99878.11;1989244;85;21328;-83
2022/06/22 11:38:37;;;;;;;3.95;1.25;;;;;;;27.26;28.88;99888.52;2077283;83;21025;-84
2022/06/22 11:42:06;;;;;;;2.55;1.05;;;;;;;27.33;29.30;99888.19;2081643;83;21002;-83
2022/06/22 11:45:59;;;;;;;1.98;1.17;;;;;;;27.68;30.26;99893.37;2083491;84;21029;-83
2022/06/22 11:49:39;;;;;;;2.67;1.10;;;;;;;27.97;30.01;99900.77;2084713;83;21053;-82
2022/06/22 11:52:52;;;;;;;4.92;1.20;;;;;;;28.14;29.55;99905.78;2085046;83;21036;-82
2022/06/22 11:56:03;;;;;;;4.22;1.15;;;;;;;28.26;29.42;99904.02;2082788;83;21552;-84
2022/06/22 11:59:13;;;;;;;2.80;1.30;;;;;;;28.34;28.83;99904.75;2077711;83;21099;-84
2022/06/22 12:02:39;;;;;;;1.60;0.80;;;;;;;28.37;30.13;99913.71;2079964;83;21022;-84
2022/06/22 12:06:07;;;;;;;1.72;1.20;;;;;;;28.48;29.51;99912.53;2047764;84;21133;-83
2022/06/22 12:09:39;;;;;;;2.52;0.93;;;;;;;28.44;28.47;99913.39;2032040;85;21066;-82
2022/06/22 12:13:06;;;;;;;1.90;0.90;;;;;;;28.28;29.22;99916.27;2029754;86;22315;-83
2022/06/22 12:16:21;;;;;;;3.58;1.20;;;;;;;28.03;27.88;99911.88;2030349;86;21004;-84
2022/06/22 12:19:51;;;;;;;3.52;1.30;;;;;;;27.83;28.25;99905.27;2020396;86;21034;-84
2022/06/22 12:23:14;;;;;;;3.87;1.45;;;;;;;27.85;28.46;99912.06;2028082;86;20999;-82
2022/06/22 12:26:47;;;;;;;4.17;1.00;;;;;;;27.98;30.00;99917.94;2030844;85;21022;-83
2022/06/22 12:30:11;;;;;;;2.37;1.20;;;;;;;28.21;29.61;99910.33;2035747;86;21113;-84
2022/06/22 12:33:38;;;;;;;2.85;1.30;;;;;;;28.13;28.96;99903.61;2033239;85;21061;-84
2022/06/22 12:36:49;;;;;;;3.65;1.10;;;;;;;28.05;28.97;99899.34;2030235;85;21563;-83
2022/06/22 12:39:57;;;;;;;2.67;1.10;;;;;;;27.74;28.70;99883.23;2028537;85;21062;-84
2022/06/22 12:43:22;;;;;;;2.65;1.25;;;;;;;27.61;29.13;99890.14;2030278;85;21002;-83
2022/06/22 12:46:41;;;;;;;2.10;0.90;;;;;;;27.50;30.36;99881.23;2035154;85;21069;-84
2022/06/22 12:50:03;;;;;;;3.35;1.00;;;;;;;27.67;29.24;99886.83;2033102;86;21528;-85
2022/06/22 12:53:12;;;;;;;2.30;1.27;;;;;;;27.71;29.06;99886.53;2029952;85;21050;-83
2022/06/22 12:56:30;;;;;;;2.60;1.37;;;;;;;27.50;29.42;99885.88;2033831;86;21022;-84
2022/06/22 12:59:43;;;;;;;2.83;1.17;;;;;;;27.52;28.94;99881.52;2031595;86;21049;-83
2022/06/22 13:02:48;;;;;;;1.52;1.00;;;;;;;27.32;28.76;99875.12;2034185;86;21558;-83
2022/06/22 13:05:52;;;;;;;2.85;1.20;;;;;;;27.18;29.22;99872.78;2037588;85;21110;-85
2022/06/22 13:08:57;;;;;;;5.03;1.22;;;;;;;26.96;29.11;99867.71;2038796;86;20983;-84
2022/06/22 13:12:05;;;;;;;2.40;1.30;;;;;;;26.46;29.15;99874.44;2033914;86;21632;-82
2022/06/22 13:15:23;;;;;;;2.02;1.00;;;;;;;26.15;29.51;99872.36;2037328;86;21087;-83
2022/06/22 13:18:48;;;;;;;2.92;0.93;;;;;;;26.15;30.16;99871.00;2035508;86;21077;-83
2022/06/22 13:22:12;;;;;;;5.17;1.00;;;;;;;26.05;31.15;99868.33;2036829;86;21026;-82
2022/06/22 13:25:44;;;;;;;2.20;1.07;;;;;;;26.11;30.94;99869.94;2037178;86;21034;-85
2022/06/22 13:29:30;;;;;;;1.32;1.02;;;;;;;26.11;30.83;99859.06;2038621;86;21031;-82
2022/06/22 13:32:36;;;;;;;2.60;1.17;;;;;;;25.92;30.68;99862.91;2035058;86;21085;-84
2022/06/22 13:36:00;;;;;;;3.35;1.17;;;;;;;25.98;30.93;99866.42;2039044;86;21612;-84
2022/06/22 13:39:22;;;;;;;4.65;1.90;;;;;;;26.04;30.67;99860.69;2037996;86;21022;-83
2022/06/22 13:42:42;;;;;;;2.42;1.05;;;;;;;26.14;30.72;99858.52;2043714;86;21605;-82
2022/06/22 13:46:11;;;;;;;2.47;1.25;;;;;;;26.31;30.47;99849.48;2040699;86;21065;-84
2022/06/22 13:49:38;;;;;;;2.03;0.90;;;;;;;26.38;30.30;99846.45;2038874;86;21022;-83
2022/06/22 13:52:48;;;;;;;3.30;0.90;;;;;;;26.26;30.49;99825.02;2034024;86;21021;-83
2022/06/22 13:55:56;;;;;;;;;;;;;;;26.34;30.65;99823.08;2038807;86;20997;-82
2022/06/22 13:59:02;;;;;;;3.42;0.90;;;;;;;26.21;30.04;99812.80;2034693;86;20147;-85
2022/06/22 14:02:17;;;;;;;3.87;1.10;;;;;;;26.04;30.22;99813.13;2038124;85;21333;-84
2022/06/22 14:05:36;;;;;;;5.33;1.15;;;;;;;26.00;30.23;99809.34;2037697;85;21504;-84
2022/06/22 14:09:05;;;;;;;1.57;0.80;;;;;;;25.96;30.10;99803.36;2028336;85;21117;-84
2022/06/22 14:12:15;;;;;;;2.27;1.02;;;;;;;26.00;30.26;99796.30;2036217;85;21070;-82
2022/06/22 14:16:01;;;;;;;3.35;1.37;;;;;;;25.97;30.04;99807.73;2030160;86;21066;-82
2022/06/22 14:19:23;;;;;;;3.00;0.98;;;;;;;25.96;31.10;99807.44;2031722;86;20975;-84
2022/06/22 14:22:35;;;;;;;1.75;1.17;;;;;;;26.19;31.19;99804.13;2035846;85;21473;-84
2022/06/22 14:26:02;;;;;;;2.55;1.30;;;;;;;26.35;31.61;99794.78;2037915;85;21038;-83
2022/06/22 14:29:31;;;;;;;4.75;1.15;;;;;;;26.38;30.84;99787.45;2029218;86;21039;-83
2022/06/22 14:33:08;;;;;;;3.25;1.20;;;;;;;26.39;31.20;99792.34;2032927;86;21045;-83
2022/06/22 14:36:24;;;;;;;4.12;1.25;;;;;;;26.51;30.95;99787.95;2031657;86;21030;-85
2022/06/22 14:39:36;;;;;;;3.37;1.15;;;;;;;26.62;30.90;99798.24;2034314;85;21066;-85
2022/06/22 14:42:42;;;;;;;2.55;1.30;;;;;;;26.66;30.95;99797.94;2031796;85;21538;-84
2022/06/22 14:45:51;;;;;;;5.10;1.35;;;;;;;26.64;30.55;99796.88;2028472;85;21022;-83
2022/06/22 14:49:13;;;;;;;2.90;1.57;;;;;;;26.69;30.79;99800.90;2033326;85;20975;-84
2022/06/22 14:52:29;;;;;;;2.67;1.32;;;;;;;26.63;31.02;99788.98;2012237;86;21632;-85
2022/06/22 14:55:54;;;;;;;1.75;1.07;;;;;;;26.59;31.23;99784.65;2032338;86;21046;-84
2022/06/22 14:59:07;;;;;;;5.75;1.30;;;;;;;26.62;31.16;99780.56;2030378;86;21122;-85
2022/06/22 15:02:28;;;;;;;2.10;1.00;;;;;;;26.48;30.24;99778.42;2017438;85;21113;-84
2022/06/22 15:05:37;;;;;;;2.47;1.12;;;;;;;26.20;30.01;99774.47;2053617;83;21026;-83
2022/06/22 15:09:28;;;;;;;5.40;0.90;;;;;;;25.97;31.41;99771.03;2107092;83;21025;-84
2022/06/22 15:12:57;;;;;;;2.47;1.30;;;;;;;25.93;31.88;99763.44;2106809;83;21010;-84
2022/06/22 15:16:13;;;;;;;1.15;0.90;;;;;;;26.02;31.79;99766.39;2107962;83;21037;-84
2022/06/22 15:19:31;;;;;;;4.78;1.10;;;;;;;26.02;30.85;99767.76;2103960;83;21080;-83
2022/06/22 15:22:47;;;;;;;1.87;1.10;;;;;;;25.93;30.63;99766.16;2104614;83;21021;-83
2022/06/22 15:26:13;;;;;;;1.45;1.10;;;;;;;25.79;31.04;99762.89;2110950;83;21052;-84
2022/06/22 16:31:05;;;;;;;5.10;1.40;;;;;;;24.74;32.43;99718.16;2055988;84;21585;-81
2022/06/22 16:34:24;;;;;;;2.22;1.10;;;;;;;24.65;32.25;99721.14;2081724;83;21084;-82
2022/06/22 16:37:34;;;;;;;7.25;1.20;;;;;;;24.63;32.44;99728.72;2092254;83;21533;-81
2022/06/22 16:40:46;;;;;;;2.47;1.10;;;;;;;24.66;32.18;99728.99;2096940;83;21532;-82
2022/06/22 16:44:26;;;;;;;3.70;1.50;;;;;;;24.69;32.33;99726.28;2095372;83;21026;-85
2022/06/22 16:47:31;;;;;;;2.20;1.00;;;;;;;24.67;31.98;99727.13;2101938;83;21575;-85